createdAt,value
2023-03-07T00:00:12.925Z,98790.81
2023-03-07T00:03:05.430Z,98792.27
2023-03-07T00:05:37.699Z,98793.27
2023-03-07T00:08:10.286Z,98793.55
2023-03-07T00:10:42.598Z,98793.44
2023-03-07T00:13:14.736Z,98793.25
2023-03-07T00:15:46.887Z,98789.71
2023-03-07T00:18:19.195Z,98787.89
2023-03-07T00:20:59.787Z,98785.52
2023-03-07T00:23:31.904Z,98791.91
2023-03-07T00:26:06.452Z,98789.33
2023-03-07T00:28:38.900Z,98783.86
2023-03-07T00:31:12.437Z,98786.91
2023-03-07T00:33:44.685Z,98781.78
2023-03-07T00:36:19.888Z,98780.76
2023-03-07T00:38:50.685Z,98781.45
2023-03-07T00:41:24.351Z,98777.41
2023-03-07T00:43:57.570Z,98772.35
2023-03-07T00:46:30.992Z,98768.13
2023-03-07T00:49:04.049Z,98770.77
2023-03-07T00:51:36.228Z,98768.18
2023-03-07T00:54:09.217Z,98770.67
2023-03-07T00:56:41.867Z,98766.66
2023-03-07T00:59:14.599Z,98762.86
2023-03-07T01:01:46.765Z,98757.19
2023-03-07T01:04:19.221Z,98755.24
2023-03-07T01:06:51.823Z,98754.65
2023-03-07T01:09:24.738Z,98749.42
2023-03-07T01:11:56.976Z,98749.39
2023-03-07T01:14:30.680Z,98747.11
2023-03-07T01:17:04.115Z,98746.10
2023-03-07T01:19:36.249Z,98746.36
2023-03-07T01:22:08.644Z,98750.54
2023-03-07T01:24:41.761Z,98746.66
2023-03-07T01:27:14.211Z,98742.39
2023-03-07T01:29:46.489Z,98740.40
2023-03-07T01:32:18.930Z,98742.28
2023-03-07T01:34:51.181Z,98743.95
2023-03-07T01:37:23.674Z,98740.96
2023-03-07T01:39:56.871Z,98738.80
2023-03-07T01:42:32.921Z,98737.23
2023-03-07T01:45:09.776Z,98734.73
2023-03-07T01:47:47.937Z,98733.70
2023-03-07T01:50:21.001Z,98733.77
2023-03-07T01:52:57.307Z,98729.78
2023-03-07T01:55:34.073Z,98728.30
2023-03-07T01:58:16.552Z,98728.80
2023-03-07T02:00:48.736Z,98725.05
2023-03-07T02:03:31.590Z,98722.13
2023-03-07T02:06:06.900Z,98725.68
2023-03-07T02:08:41.406Z,98724.56
2023-03-07T02:11:14.239Z,98717.45
2023-03-07T02:13:46.408Z,98717.89
2023-03-07T02:16:19.002Z,98710.23
2023-03-07T02:18:52.229Z,98712.80
2023-03-07T02:21:35.838Z,98709.71
2023-03-07T02:24:16.916Z,98708.45
2023-03-07T02:26:50.825Z,98707.61
2023-03-07T02:29:23.538Z,98706.62
2023-03-07T02:31:55.759Z,98703.56
2023-03-07T02:34:30.329Z,98705.13
2023-03-07T02:37:26.689Z,98705.77
2023-03-07T02:40:00.240Z,98703.27
2023-03-07T02:42:35.036Z,98704.30
2023-03-07T02:45:15.073Z,98702.23
2023-03-07T02:47:48.596Z,98701.66
2023-03-07T02:50:22.503Z,98697.14
2023-03-07T02:52:56.960Z,98699.86
2023-03-07T02:55:29.478Z,98695.85
2023-03-07T02:58:04.694Z,98694.70
2023-03-07T03:00:37.167Z,98692.66
2023-03-07T03:03:09.590Z,98691.45
2023-03-07T03:05:41.679Z,98690.88
2023-03-07T03:08:13.931Z,98688.39
2023-03-07T03:10:46.230Z,98688.86
2023-03-07T03:13:19.042Z,98685.93
2023-03-07T03:15:55.840Z,98682.90
2023-03-07T03:18:30.394Z,98688.36
2023-03-07T03:21:10.650Z,98686.73
2023-03-07T03:23:43.315Z,98685.56
2023-03-07T03:26:15.833Z,98683.34
2023-03-07T03:28:48.058Z,98682.86
2023-03-07T03:31:20.579Z,98679.38
2023-03-07T03:33:53.436Z,98678.61
2023-03-07T03:36:26.630Z,98677.52
2023-03-07T03:39:01.661Z,98674.06
2023-03-07T03:41:34.517Z,98672.79
2023-03-07T03:44:06.968Z,98671.27
2023-03-07T03:46:39.627Z,98671.52
2023-03-07T03:49:16.791Z,98672.36
2023-03-07T03:51:49.928Z,98672.91
2023-03-07T03:54:22.763Z,98671.98
2023-03-07T03:56:56.160Z,98673.97
2023-03-07T03:59:28.387Z,98671.41
2023-03-07T04:02:00.668Z,98668.42
2023-03-07T04:04:32.924Z,98669.36
2023-03-07T04:07:05.520Z,98663.20
2023-03-07T04:09:38.080Z,98665.11
2023-03-07T04:12:11.049Z,98660.92
2023-03-07T04:14:43.280Z,98661.91
2023-03-07T04:17:15.454Z,98662.77
2023-03-07T04:19:47.741Z,98661.36
2023-03-07T04:22:19.961Z,98657.94
2023-03-07T04:24:52.155Z,98656.38
2023-03-07T04:27:24.508Z,98656.04
2023-03-07T04:29:57.105Z,98654.41
2023-03-07T04:32:30.046Z,98655.66
2023-03-07T04:35:02.337Z,98652.63
2023-03-07T04:37:34.585Z,98651.89
2023-03-07T04:40:07.972Z,98644.93
2023-03-07T04:42:40.429Z,98641.95
2023-03-07T04:45:14.260Z,98637.71
2023-03-07T04:47:46.535Z,98638.87
2023-03-07T04:50:20.139Z,98638.16
2023-03-07T04:52:52.739Z,98632.13
2023-03-07T04:55:25.162Z,98629.35
2023-03-07T04:57:57.875Z,98628.38
2023-03-07T05:00:30.881Z,98627.52
2023-03-07T05:03:03.278Z,98625.37
2023-03-07T05:05:37.598Z,98620.28
2023-03-07T05:08:10.484Z,98619.45
2023-03-07T05:10:43.099Z,98619.23
2023-03-07T05:13:15.306Z,98618.01
2023-03-07T05:15:53.745Z,98613.73
2023-03-07T05:18:27.859Z,98606.27
2023-03-07T05:21:02.183Z,98598.75
2023-03-07T05:23:34.818Z,98597.73
2023-03-07T05:26:07.311Z,98597.89
2023-03-07T05:28:39.993Z,98599.15
2023-03-07T05:31:12.629Z,98594.61
2023-03-07T05:33:44.812Z,98586.86
2023-03-07T05:36:17.698Z,98586.22
2023-03-07T05:38:49.990Z,98589.11
2023-03-07T05:41:22.211Z,98589.92
2023-03-07T05:43:55.451Z,98590.34
2023-03-07T05:46:28.370Z,98588.26
2023-03-07T05:49:00.666Z,98588.49
2023-03-07T05:51:33.117Z,98586.25
2023-03-07T05:54:05.538Z,98582.89
2023-03-07T05:56:37.841Z,98582.58
2023-03-07T05:59:13.079Z,98584.02
2023-03-07T06:01:45.524Z,98588.13
2023-03-07T06:04:17.896Z,98584.84
2023-03-07T06:06:50.205Z,98580.55
2023-03-07T06:09:23.710Z,98573.55
2023-03-07T06:11:56.810Z,98570.58
2023-03-07T06:14:28.973Z,98570.39
2023-03-07T06:17:01.633Z,98567.23
2023-03-07T06:19:34.079Z,98567.69
2023-03-07T06:22:06.536Z,98560.51
2023-03-07T06:24:38.934Z,98562.20
2023-03-07T06:27:11.943Z,98557.35
2023-03-07T06:29:45.135Z,98566.65
2023-03-07T06:32:17.227Z,98567.46
2023-03-07T06:34:49.396Z,98565.18
2023-03-07T06:37:21.718Z,98560.52
2023-03-07T06:39:54.398Z,98559.11
2023-03-07T06:42:26.702Z,98552.34
2023-03-07T06:44:59.092Z,98548.98
2023-03-07T06:47:33.320Z,98546.09
2023-03-07T06:50:06.132Z,98551.13
2023-03-07T06:52:38.749Z,98551.80
2023-03-07T06:55:13.424Z,98555.45
2023-03-07T06:57:45.541Z,98554.16
2023-03-07T07:00:20.894Z,98552.48
2023-03-07T07:02:53.329Z,98546.30
2023-03-07T07:05:26.217Z,98541.30
2023-03-07T07:07:58.719Z,98542.80
2023-03-07T07:10:31.041Z,98531.55
2023-03-07T07:13:04.675Z,98530.82
2023-03-07T07:15:37.475Z,98525.50
2023-03-07T07:18:11.854Z,98522.11
2023-03-07T07:20:44.098Z,98516.66
2023-03-07T07:23:16.438Z,98518.99
2023-03-07T07:25:48.638Z,98517.41
2023-03-07T07:28:20.802Z,98510.11
2023-03-07T07:30:53.018Z,98508.61
2023-03-07T07:33:25.291Z,98502.84
2023-03-07T07:35:59.027Z,98502.59
2023-03-07T07:38:31.700Z,98495.77
2023-03-07T07:41:03.859Z,98486.08
2023-03-07T07:43:37.370Z,98484.02
2023-03-07T07:46:17.360Z,98477.77
2023-03-07T07:48:50.747Z,98483.09
2023-03-07T07:51:23.555Z,98480.63
2023-03-07T07:53:56.334Z,98476.17
2023-03-07T07:56:28.710Z,98467.86
2023-03-07T07:59:00.805Z,98460.21
2023-03-07T08:01:33.089Z,98463.19
2023-03-07T08:04:05.217Z,98462.50
2023-03-07T08:06:37.410Z,98457.11
2023-03-07T08:09:09.553Z,98463.39
2023-03-07T08:11:42.720Z,98457.28
2023-03-07T08:14:14.812Z,98455.60
2023-03-07T08:16:46.886Z,98452.64
2023-03-07T08:19:19.022Z,98454.89
2023-03-07T08:21:51.165Z,98452.89
2023-03-07T08:24:29.345Z,98450.91
2023-03-07T08:27:07.866Z,98459.04
2023-03-07T08:29:40.087Z,98453.40
2023-03-07T08:32:15.259Z,98452.06
2023-03-07T08:34:47.881Z,98452.48
2023-03-07T08:37:20.098Z,98448.92
2023-03-07T08:39:52.245Z,98447.27
2023-03-07T08:42:24.465Z,98447.92
2023-03-07T08:44:56.682Z,98443.96
2023-03-07T08:47:28.895Z,98437.67
2023-03-07T08:50:01.072Z,98439.20
2023-03-07T08:52:33.160Z,98433.98
2023-03-07T08:55:05.860Z,98429.93
2023-03-07T08:57:37.978Z,98418.04
2023-03-07T09:00:14.316Z,98413.79
2023-03-07T09:02:46.536Z,98404.84
2023-03-07T09:05:19.268Z,98399.13
2023-03-07T09:07:51.638Z,98393.90
2023-03-07T09:10:24.137Z,98391.51
2023-03-07T09:12:56.491Z,98391.88
2023-03-07T09:15:28.700Z,98383.52
2023-03-07T09:18:00.864Z,98382.48
2023-03-07T09:20:32.915Z,98384.92
2023-03-07T09:23:05.375Z,98383.30
2023-03-07T09:25:39.889Z,98380.38
2023-03-07T09:28:12.011Z,98378.46
2023-03-07T09:30:44.158Z,98371.95
2023-03-07T09:33:17.116Z,98379.67
2023-03-07T09:35:49.945Z,98375.14
2023-03-07T09:38:22.352Z,98363.96
2023-03-07T09:40:55.001Z,98358.92
2023-03-07T09:43:34.907Z,98350.39
2023-03-07T09:46:34.919Z,98342.13
2023-03-07T09:49:21.734Z,98345.33
2023-03-07T09:51:59.198Z,98343.02
2023-03-07T09:54:40.117Z,98329.02
2023-03-07T09:57:20.084Z,98333.52
2023-03-07T09:59:55.204Z,98322.29
2023-03-07T10:02:34.261Z,98314.62
2023-03-07T10:05:17.380Z,98305.93
2023-03-07T10:07:49.841Z,98299.61
2023-03-07T10:10:25.524Z,98297.58
2023-03-07T10:13:12.668Z,98293.60
2023-03-07T10:15:49.787Z,98285.86
2023-03-07T10:18:47.025Z,98283.39
2023-03-07T10:21:29.410Z,98272.72
2023-03-07T10:24:20.931Z,98263.73
2023-03-07T10:27:01.052Z,98263.52
2023-03-07T10:29:40.380Z,98258.92
2023-03-07T10:32:24.231Z,98255.50
2023-03-07T10:35:02.839Z,98253.27
2023-03-07T10:37:46.533Z,98246.57
2023-03-07T10:40:24.577Z,98236.75
2023-03-07T10:42:58.380Z,98232.48
2023-03-07T10:45:33.250Z,98227.45
2023-03-07T10:48:10.391Z,98233.42
2023-03-07T10:50:47.602Z,98225.70
2023-03-07T10:53:26.555Z,98231.35
2023-03-07T10:56:13.010Z,98219.89
2023-03-07T10:59:02.148Z,98224.38
2023-03-07T11:01:35.863Z,98216.65
2023-03-07T11:04:21.308Z,98204.64
2023-03-07T11:06:54.659Z,98197.19
2023-03-07T11:09:30.130Z,98186.09
2023-03-07T11:12:12.443Z,98184.17
2023-03-07T11:14:52.213Z,98186.11
2023-03-07T11:17:27.285Z,98187.33
2023-03-07T11:19:58.574Z,98184.90
2023-03-07T11:22:33.919Z,98191.48
2023-03-07T11:25:16.008Z,98185.69
2023-03-07T11:27:54.121Z,98171.42
2023-03-07T11:30:29.781Z,98174.14
2023-03-07T11:33:17.093Z,98172.45
2023-03-07T11:35:58.291Z,98171.31
2023-03-07T11:38:42.575Z,98161.88
2023-03-07T11:41:23.374Z,98158.82
2023-03-07T11:44:19.846Z,98151.75
2023-03-07T11:47:30.889Z,98141.34
2023-03-07T11:50:22.381Z,98134.02
2023-03-07T11:53:17.701Z,98129.79
2023-03-07T11:56:01.775Z,98114.33
2023-03-07T11:59:03.297Z,98113.91
2023-03-07T12:01:44.765Z,98107.14
2023-03-07T12:04:54.749Z,98106.58
2023-03-07T12:07:57.405Z,98096.66
2023-03-07T12:10:45.878Z,98088.00
2023-03-07T12:13:34.227Z,98081.87
2023-03-07T12:16:19.838Z,98076.52
2023-03-07T12:19:08.117Z,98069.27
2023-03-07T12:21:59.320Z,98061.58
2023-03-07T12:24:36.353Z,98057.47
2023-03-07T12:27:16.565Z,98062.98
2023-03-07T12:29:53.275Z,98055.11
2023-03-07T12:32:27.854Z,98057.56
2023-03-07T12:35:05.252Z,98052.11
2023-03-07T12:37:44.431Z,98049.65
2023-03-07T12:40:22.567Z,98053.27
2023-03-07T12:43:00.216Z,98048.76
2023-03-07T12:45:49.462Z,98043.35
2023-03-07T12:48:29.595Z,98041.71
2023-03-07T12:51:09.619Z,98039.69
2023-03-07T12:53:47.883Z,98036.85
2023-03-07T12:56:24.538Z,98035.03
2023-03-07T12:59:02.628Z,98039.77
2023-03-07T13:01:38.280Z,98034.57
2023-03-07T13:04:18.164Z,98030.73
2023-03-07T13:06:51.332Z,98028.77
2023-03-07T13:09:26.583Z,98029.40
2023-03-07T13:12:31.340Z,98030.83
2023-03-07T13:15:05.523Z,98027.05
2023-03-07T13:17:59.824Z,98022.15
2023-03-07T13:20:43.769Z,98021.99
2023-03-07T13:23:29.636Z,98015.73
2023-03-07T13:26:24.017Z,98018.09
2023-03-07T13:28:57.586Z,98012.23
2023-03-07T13:31:44.430Z,98010.38
2023-03-07T13:34:51.657Z,98009.28
2023-03-07T13:37:53.993Z,98005.23
2023-03-07T13:40:53.825Z,98001.05
2023-03-07T13:44:00.196Z,97993.70
2023-03-07T13:46:54.400Z,97998.02
2023-03-07T13:49:47.147Z,97992.95
2023-03-07T13:52:31.212Z,97990.52
2023-03-07T13:55:06.121Z,97995.95
2023-03-07T13:57:44.101Z,97992.05
2023-03-07T14:00:38.543Z,97984.63
2023-03-07T14:03:28.157Z,97986.96
2023-03-07T14:06:04.713Z,97981.04
2023-03-07T14:08:37.229Z,97979.52
2023-03-07T14:11:20.755Z,97974.57
2023-03-07T14:14:17.164Z,97969.85
2023-03-07T14:16:59.398Z,97966.38
2023-03-07T14:19:49.234Z,97965.90
2023-03-07T14:22:36.685Z,97957.46
2023-03-07T14:25:19.226Z,97955.96
2023-03-07T14:27:56.842Z,97954.69
2023-03-07T14:30:31.584Z,97949.20
2023-03-07T14:33:04.178Z,97948.43
2023-03-07T14:35:39.349Z,97948.19
2023-03-07T14:38:22.172Z,97942.67
2023-03-07T14:41:12.169Z,97943.84
2023-03-07T14:43:56.653Z,97939.73
2023-03-07T14:46:40.221Z,97937.17
2023-03-07T14:49:23.950Z,97936.40
2023-03-07T14:51:56.317Z,97931.65
2023-03-07T14:54:35.120Z,97931.07
2023-03-07T14:57:16.666Z,97926.74
2023-03-07T15:00:20.154Z,97924.11
2023-03-07T15:02:54.703Z,97922.30
2023-03-07T15:05:30.613Z,97917.11
2023-03-07T15:08:02.829Z,97920.25
2023-03-07T15:10:42.134Z,97915.53
2023-03-07T15:13:24.007Z,97913.08
2023-03-07T15:16:00.205Z,97910.75
2023-03-07T15:18:36.981Z,97906.21
2023-03-07T15:21:17.290Z,97906.77
2023-03-07T15:23:56.397Z,97903.05
2023-03-07T15:26:30.405Z,97897.97
2023-03-07T15:29:08.898Z,97900.95
2023-03-07T15:31:54.275Z,97896.15
2023-03-07T15:34:26.269Z,97891.73
2023-03-07T15:37:22.515Z,97889.39
2023-03-07T15:40:02.861Z,97890.30
2023-03-07T15:42:35.667Z,97887.74
2023-03-07T15:45:22.654Z,97883.33
2023-03-07T15:47:55.068Z,97877.76
2023-03-07T15:50:29.886Z,97871.53
2023-03-07T15:53:09.179Z,97869.36
2023-03-07T15:55:56.937Z,97870.13
2023-03-07T15:58:30.363Z,97867.77
2023-03-07T16:01:18.957Z,97863.66
2023-03-07T16:03:56.594Z,97864.19
2023-03-07T16:06:42.598Z,97862.99
2023-03-07T16:09:16.562Z,97863.34
2023-03-07T16:11:49.755Z,97858.66
2023-03-07T16:14:26.551Z,97855.21
2023-03-07T16:17:01.340Z,97857.45
2023-03-07T16:19:33.884Z,97849.96
2023-03-07T16:22:10.814Z,97847.19
2023-03-07T16:24:43.162Z,97840.02
2023-03-07T16:27:18.891Z,97834.99
2023-03-07T16:29:51.668Z,97833.38
2023-03-07T16:32:24.952Z,97831.30
2023-03-07T16:34:57.158Z,97828.52
2023-03-07T16:37:29.976Z,97826.45
2023-03-07T16:40:02.258Z,97825.89
2023-03-07T16:42:35.275Z,97824.04
2023-03-07T16:45:12.943Z,97823.07
2023-03-07T16:47:45.077Z,97819.56
2023-03-07T16:50:20.670Z,97817.83
2023-03-07T16:52:52.859Z,97819.15
2023-03-07T16:55:25.891Z,97814.11
2023-03-07T16:58:01.724Z,97813.73
2023-03-07T17:00:34.912Z,97810.29
2023-03-07T17:03:07.040Z,97810.92
2023-03-07T17:05:39.611Z,97807.53
2023-03-07T17:08:11.770Z,97808.78
2023-03-07T17:10:44.929Z,97809.95
2023-03-07T17:13:19.899Z,97806.88
2023-03-07T17:15:50.593Z,97809.15
2023-03-07T17:18:23.415Z,97803.59
2023-03-07T17:20:55.455Z,97800.57
2023-03-07T17:23:27.790Z,97804.75
2023-03-07T17:26:00.111Z,97797.60
2023-03-07T17:28:32.413Z,97797.61
2023-03-07T17:31:04.872Z,97795.73
2023-03-07T17:33:36.998Z,97795.84
2023-03-07T17:36:12.509Z,97793.51
2023-03-07T17:38:44.997Z,97789.95
2023-03-07T17:41:17.779Z,97788.76
2023-03-07T17:43:49.884Z,97782.75
2023-03-07T17:46:24.489Z,97785.72
2023-03-07T17:48:57.249Z,97786.45
2023-03-07T17:51:29.883Z,97775.75
2023-03-07T17:54:02.382Z,97772.23
2023-03-07T17:56:34.536Z,97772.21
2023-03-07T17:59:06.795Z,97769.51
2023-03-07T18:01:40.116Z,97765.96
2023-03-07T18:04:12.544Z,97760.25
2023-03-07T18:06:44.614Z,97757.05
2023-03-07T18:09:18.819Z,97750.25
2023-03-07T18:11:51.225Z,97754.33
2023-03-07T18:14:23.410Z,97746.20
2023-03-07T18:16:56.092Z,97735.70
2023-03-07T18:19:28.492Z,97734.15
2023-03-07T18:22:00.896Z,97730.62
2023-03-07T18:24:33.088Z,97734.20
2023-03-07T18:27:08.580Z,97731.19
2023-03-07T18:29:40.749Z,97729.86
2023-03-07T18:32:13.431Z,97724.41
2023-03-07T18:34:46.797Z,97724.38
2023-03-07T18:37:19.121Z,97726.04
2023-03-07T18:39:51.274Z,97731.23
2023-03-07T18:42:23.492Z,97731.73
2023-03-07T18:44:55.889Z,97733.40
2023-03-07T18:47:28.085Z,97737.45
2023-03-07T18:50:00.414Z,97741.75
2023-03-07T18:52:32.506Z,97737.61
2023-03-07T18:55:04.886Z,97744.15
2023-03-07T18:57:37.064Z,97745.58
2023-03-07T19:00:13.453Z,97748.52
2023-03-07T19:02:45.635Z,97758.77
2023-03-07T19:05:18.238Z,97767.37
2023-03-07T19:07:50.415Z,97769.76
2023-03-07T19:10:22.759Z,97776.88
2023-03-07T19:12:54.959Z,97802.61
2023-03-07T19:15:27.191Z,97816.20
2023-03-07T19:17:59.397Z,97823.25
2023-03-07T19:20:31.662Z,97828.38
2023-03-07T19:23:03.862Z,97837.16
2023-03-07T19:25:38.609Z,97838.33
2023-03-07T19:28:10.696Z,97836.63
2023-03-07T19:30:42.812Z,97847.08
2023-03-07T19:33:14.961Z,97850.05
2023-03-07T19:35:47.178Z,97851.61
2023-03-07T19:38:19.707Z,97852.14
2023-03-07T19:40:52.113Z,97851.61
2023-03-07T19:43:24.355Z,97853.77
2023-03-07T19:45:56.989Z,97851.78
2023-03-07T19:48:29.465Z,97845.41
2023-03-07T19:51:01.627Z,97839.23
2023-03-07T19:53:33.840Z,97842.05
2023-03-07T19:56:13.777Z,97827.02
2023-03-07T19:58:45.910Z,97809.90
2023-03-07T20:01:19.719Z,97815.34
2023-03-07T20:03:52.707Z,97828.71
2023-03-07T20:06:28.481Z,97844.04
2023-03-07T20:09:01.794Z,97843.58
2023-03-07T20:11:36.888Z,97844.22
2023-03-07T20:14:07.990Z,97858.95
2023-03-07T20:16:40.682Z,97859.19
2023-03-07T20:19:14.287Z,97857.55
2023-03-07T20:21:49.953Z,97848.34
2023-03-07T20:24:22.311Z,97835.62
2023-03-07T20:26:54.429Z,97835.19
2023-03-07T20:29:26.576Z,97828.19
2023-03-07T20:31:58.625Z,97834.64
2023-03-07T20:34:30.754Z,97832.66
2023-03-07T20:37:03.604Z,97835.89
2023-03-07T20:39:35.756Z,97839.21
2023-03-07T20:42:08.417Z,97843.45
2023-03-07T20:44:40.727Z,97849.17
2023-03-07T20:47:12.902Z,97853.88
2023-03-07T20:49:45.029Z,97856.41
2023-03-07T20:52:17.190Z,97858.35
2023-03-07T20:54:49.317Z,97861.72
2023-03-07T20:57:21.479Z,97871.64
2023-03-07T20:59:53.645Z,97869.36
2023-03-07T21:02:25.775Z,97867.45
2023-03-07T21:04:58.032Z,97872.40
2023-03-07T21:07:30.207Z,97878.73
2023-03-07T21:10:02.396Z,97877.81
2023-03-07T21:12:36.031Z,97876.58
2023-03-07T21:15:10.874Z,97878.30
2023-03-07T21:17:43.106Z,97876.86
2023-03-07T21:20:15.881Z,97876.97
2023-03-07T21:22:48.076Z,97879.11
2023-03-07T21:25:20.349Z,97876.63
2023-03-07T21:27:52.589Z,97877.23
2023-03-07T21:30:24.657Z,97882.95
2023-03-07T21:32:59.521Z,97888.73
2023-03-07T21:35:32.369Z,97891.59
2023-03-07T21:38:04.694Z,97890.88
2023-03-07T21:40:36.916Z,97888.11
2023-03-07T21:43:09.170Z,97894.15
2023-03-07T21:45:41.349Z,97896.30
2023-03-07T21:48:13.721Z,97903.37
2023-03-07T21:50:46.929Z,97903.04
2023-03-07T21:53:19.266Z,97907.58
2023-03-07T21:55:57.094Z,97913.95
2023-03-07T21:58:30.585Z,97912.09
2023-03-07T22:01:09.757Z,97911.32
2023-03-07T22:03:42.967Z,97910.67
2023-03-07T22:06:16.877Z,97911.98
2023-03-07T22:08:49.220Z,97919.24
2023-03-07T22:11:21.794Z,97914.08
2023-03-07T22:13:54.038Z,97915.09
2023-03-07T22:16:26.167Z,97916.11
2023-03-07T22:18:58.777Z,97920.55
2023-03-07T22:21:30.906Z,97917.23
2023-03-07T22:24:03.101Z,97925.89
2023-03-07T22:26:35.674Z,97921.90
2023-03-07T22:29:07.892Z,97921.84
2023-03-07T22:31:40.184Z,97929.63
2023-03-07T22:34:12.358Z,97933.64
2023-03-07T22:36:44.475Z,97929.10
2023-03-07T22:39:16.657Z,97929.57
2023-03-07T22:41:48.784Z,97924.89
2023-03-07T22:44:21.027Z,97922.02
2023-03-07T22:46:53.686Z,97924.43
2023-03-07T22:49:26.821Z,97923.09
2023-03-07T22:51:59.120Z,97933.09
2023-03-07T22:54:31.344Z,97936.09
2023-03-07T22:57:03.544Z,97938.95
2023-03-07T22:59:35.997Z,97938.25
2023-03-07T23:02:08.462Z,97941.34
2023-03-07T23:04:40.719Z,97945.77
2023-03-07T23:07:13.235Z,97947.85
2023-03-07T23:09:45.808Z,97953.98
2023-03-07T23:12:17.979Z,97948.55
2023-03-07T23:14:50.137Z,97947.94
2023-03-07T23:17:22.571Z,97942.98
2023-03-07T23:19:55.280Z,97945.92
2023-03-07T23:22:27.581Z,97946.74
2023-03-07T23:24:59.817Z,97952.44
2023-03-07T23:27:32.281Z,97951.64
2023-03-07T23:30:04.691Z,97945.77
2023-03-07T23:32:36.825Z,97956.34
2023-03-07T23:35:11.442Z,97954.99
2023-03-07T23:37:43.553Z,97955.08
2023-03-07T23:40:16.705Z,97957.48
2023-03-07T23:42:49.022Z,97955.95
2023-03-07T23:45:22.326Z,97964.13
2023-03-07T23:47:54.634Z,97966.57
2023-03-07T23:50:27.107Z,97968.83
2023-03-07T23:52:59.203Z,97977.71
2023-03-07T23:55:31.392Z,97977.11
2023-03-07T23:58:03.435Z,97976.38
